Time;durP1;ratioP1;P1;durP2;ratioP2;P2;SDS_P1;SDS_P2;PMS_P1;PMS_P2;Temp;Humidity;BMP_temperature;BMP_pressure;BME280_temperature;BME280_humidity;BME280_pressure;Samples;Min_cycle;Max_cycle;Signal;HPM_P1;HPM_P2
2022/09/28 00:01:24;;;;;;;3.58;2.40;;;7.90;99.90;;;;;;5076428;28;20116;-64
2022/09/28 00:03:53;;;;;;;5.05;2.60;;;7.90;99.90;;;;;;5076283;28;20047;-64
2022/09/28 00:06:20;;;;;;;;;;;7.80;99.90;;;;;;5076904;28;20037;-64
2022/09/28 00:08:48;;;;;;;3.70;2.95;;;7.80;99.90;;;;;;5076432;28;20006;-64
2022/09/28 00:11:16;;;;;;;4.28;2.65;;;7.80;99.90;;;;;;5076200;28;20399;-64
2022/09/28 00:13:44;;;;;;;7.18;3.05;;;7.90;99.90;;;;;;5076298;28;20083;-64
2022/09/28 00:16:15;;;;;;;4.22;3.08;;;7.80;99.90;;;;;;5075972;28;20494;-64
2022/09/28 00:18:42;;;;;;;4.10;3.35;;;8.00;99.90;;;;;;5076223;28;20036;-64
2022/09/28 00:21:13;;;;;;;7.05;3.30;;;7.90;99.90;;;;;;5076159;28;20032;-64
2022/09/28 00:26:25;;;;;;;4.80;3.25;;;7.90;99.90;;;;;;5076063;28;20044;-63
2022/09/28 00:28:57;;;;;;;5.03;3.22;;;8.00;99.90;;;;;;5075976;28;20037;-63
2022/09/28 00:31:23;;;;;;;4.25;3.42;;;8.00;99.90;;;;;;5075941;28;20044;-64
2022/09/28 00:33:56;;;;;;;9.00;3.67;;;8.10;99.90;;;;;;5075765;28;20503;-64
2022/09/28 00:36:23;;;;;;;5.22;3.47;;;8.10;99.90;;;;;;5075883;28;20076;-63
2022/09/28 00:38:50;;;;;;;4.70;4.05;;;8.00;99.90;;;;;;5075712;28;20554;-64
2022/09/28 00:41:16;;;;;;;4.90;3.53;;;8.10;99.90;;;;;;5075723;28;20040;-63
2022/09/28 00:43:41;;;;;;;10.38;4.45;;;8.10;99.90;;;;;;5075720;28;20429;-64
2022/09/28 00:46:27;;;;;;;5.40;3.95;;;8.10;99.90;;;;;;5074578;28;20072;-64
2022/09/28 00:49:10;;;;;;;5.78;3.45;;;8.10;99.90;;;;;;5075654;28;20047;-64
2022/09/28 00:51:38;;;;;;;11.40;4.57;;;8.00;99.90;;;;;;5075571;28;20508;-64
2022/09/28 00:54:07;;;;;;;4.93;3.73;;;8.00;99.90;;;;;;5075299;28;20059;-63
2022/09/28 00:56:37;;;;;;;4.22;3.67;;;8.10;99.90;;;;;;5075814;28;20279;-64
2022/09/28 00:59:03;;;;;;;4.15;3.42;;;8.10;99.90;;;;;;5075456;28;20068;-64
2022/09/28 01:01:29;;;;;;;4.18;3.35;;;8.10;99.90;;;;;;5075322;28;20530;-64
2022/09/28 01:03:57;;;;;;;5.53;3.35;;;8.10;99.90;;;;;;5074437;28;20040;-64
2022/09/28 01:06:27;;;;;;;6.53;3.80;;;8.10;99.90;;;;;;5074723;28;20491;-63
2022/09/28 01:08:57;;;;;;;6.13;4.20;;;8.00;99.90;;;;;;5075332;28;20126;-64
2022/09/28 01:11:23;;;;;;;6.57;4.10;;;8.00;99.90;;;;;;5075361;28;20036;-64
2022/09/28 01:13:52;;;;;;;4.60;3.70;;;8.00;99.90;;;;;;5075180;28;20041;-63
2022/09/28 01:16:41;;;;;;;7.47;4.03;;;8.00;99.90;;;;;;5074957;28;20037;-64
2022/09/28 01:19:36;;;;;;;5.05;3.90;;;8.00;99.90;;;;;;5074969;28;20044;-64
2022/09/28 01:22:21;;;;;;;4.85;3.90;;;7.90;99.90;;;;;;5074920;28;20391;-63
2022/09/28 01:25:09;;;;;;;4.40;4.00;;;7.90;99.90;;;;;;5074664;28;20085;-64
2022/09/28 01:27:48;;;;;;;6.10;4.10;;;7.80;99.90;;;;;;5074885;28;20090;-64
2022/09/28 01:30:20;;;;;;;5.07;3.90;;;7.80;99.90;;;;;;5074687;28;20395;-63
2022/09/28 01:33:06;;;;;;;5.15;3.88;;;7.70;99.90;;;;;;5075247;28;20037;-64
2022/09/28 01:35:54;;;;;;;5.82;3.75;;;7.70;99.90;;;;;;5074709;28;20392;-64
2022/09/28 01:38:29;;;;;;;5.07;4.03;;;7.60;99.90;;;;;;5074400;28;20498;-65
2022/09/28 01:40:58;;;;;;;6.75;4.45;;;7.50;99.90;;;;;;5074511;28;20040;-64
2022/09/28 01:43:26;;;;;;;7.78;4.60;;;7.50;99.90;;;;;;5074545;28;20422;-63
2022/09/28 01:45:58;;;;;;;7.53;4.18;;;7.50;99.90;;;;;;5074565;28;20036;-64
2022/09/28 01:48:38;;;;;;;8.27;4.53;;;7.50;99.90;;;;;;5074485;28;20044;-65
2022/09/28 01:51:23;;;;;;;6.43;4.72;;;7.40;99.90;;;;;;5074287;28;20163;-64
2022/09/28 01:53:56;;;;;;;7.72;5.20;;;7.40;99.90;;;;;;5074519;28;20511;-64
2022/09/28 01:56:35;;;;;;;5.50;4.63;;;7.50;99.90;;;;;;5074355;28;20063;-64
2022/09/28 01:59:11;;;;;;;6.43;5.60;;;7.50;99.90;;;;;;5074338;28;20048;-64
2022/09/28 02:01:42;;;;;;;5.88;4.80;;;7.50;99.90;;;;;;5074048;28;20045;-64
2022/09/28 02:04:18;;;;;;;5.78;4.57;;;7.50;99.90;;;;;;5074164;28;20037;-63
2022/09/28 02:06:50;;;;;;;11.00;5.63;;;7.50;99.90;;;;;;5074179;28;20048;-64
2022/09/28 02:09:23;;;;;;;6.82;4.93;;;7.50;99.90;;;;;;5073884;28;20037;-64
2022/09/28 02:11:54;;;;;;;6.22;5.15;;;7.50;99.90;;;;;;5074115;28;20043;-64
2022/09/28 02:14:21;;;;;;;11.02;5.18;;;7.60;99.90;;;;;;5072745;28;20036;-64
2022/09/28 02:16:49;;;;;;;7.53;5.55;;;7.60;99.90;;;;;;5072446;28;20083;-65
2022/09/28 02:19:18;;;;;;;7.93;5.57;;;7.60;99.90;;;;;;5074022;28;20083;-65
2022/09/28 02:22:15;;;;;;;7.72;6.35;;;7.60;99.90;;;;;;5073904;28;20057;-64
2022/09/28 02:24:54;;;;;;;8.35;5.55;;;7.60;99.90;;;;;;5031615;28;20041;-64
2022/09/28 02:27:57;;;;;;;12.07;6.20;;;7.60;99.90;;;;;;5031632;28;20041;-63
2022/09/28 02:30:23;;;;;;;10.85;6.65;;;7.60;99.90;;;;;;5031702;28;20077;-63
2022/09/28 02:32:52;;;;;;;10.77;7.05;;;7.70;99.90;;;;;;5031784;28;20183;-64
2022/09/28 02:35:19;;;;;;;7.57;6.60;;;7.70;99.90;;;;;;5031620;28;20499;-63
2022/09/28 02:37:45;;;;;;;8.80;6.47;;;7.80;99.90;;;;;;5015275;28;20088;-63
2022/09/28 02:40:20;;;;;;;11.85;8.07;;;7.80;99.90;;;;;;5031610;28;20041;-64
2022/09/28 02:42:58;;;;;;;8.65;6.22;;;7.80;99.90;;;;;;5031576;28;20103;-64
2022/09/28 02:45:50;;;;;;;9.77;7.70;;;7.80;99.90;;;;;;5031137;28;20046;-65
2022/09/28 02:48:56;;;;;;;14.55;7.57;;;7.70;99.90;;;;;;4952635;29;20102;-63
2022/09/28 02:51:55;;;;;;;9.75;7.35;;;7.80;99.90;;;;;;4953381;29;20043;-64
2022/09/28 02:54:42;;;;;;;16.58;7.45;;;7.80;99.90;;;;;;4953356;29;20044;-64
2022/09/28 02:57:36;;;;;;;13.95;7.97;;;7.80;99.90;;;;;;4953415;29;20224;-63
2022/09/28 03:00:17;;;;;;;12.65;7.93;;;7.80;99.90;;;;;;4937512;29;20117;-64
2022/09/28 03:02:49;;;;;;;69.05;10.95;;;7.70;99.90;;;;;;5011402;28;20041;-64
2022/09/28 03:05:24;;;;;;;43.03;10.18;;;7.70;99.90;;;;;;4996048;28;20061;-64
2022/09/28 03:08:20;;;;;;;32.88;8.32;;;7.70;99.90;;;;;;5011644;28;20038;-63
2022/09/28 03:11:01;;;;;;;87.75;10.75;;;7.80;99.90;;;;;;5011566;28;20045;-63
2022/09/28 03:13:28;;;;;;;15.38;7.40;;;7.70;99.90;;;;;;5011716;28;20373;-63
2022/09/28 03:16:17;;;;;;;9.07;6.38;;;7.70;99.90;;;;;;5011744;28;20125;-64
2022/09/28 03:18:44;;;;;;;15.02;5.88;;;7.60;99.90;;;;;;5011524;28;20068;-64
2022/09/28 03:21:13;;;;;;;103.88;8.63;;;7.60;99.90;;;;;;5011628;28;20046;-64
2022/09/28 03:23:40;;;;;;;45.55;7.10;;;7.60;99.90;;;;;;5011521;28;20050;-64
2022/09/28 03:26:12;;;;;;;31.33;6.90;;;7.50;99.90;;;;;;5063740;28;20119;-64
2022/09/28 03:28:38;;;;;;;31.60;6.43;;;7.60;99.90;;;;;;5075452;28;20072;-64
2022/09/28 03:31:04;;;;;;;11.23;5.38;;;7.60;99.90;;;;;;5077081;28;20074;-64
2022/09/28 03:33:29;;;;;;;47.83;6.57;;;7.60;99.90;;;;;;5077085;28;20044;-64
2022/09/28 03:35:55;;;;;;;10.30;5.10;;;7.50;99.90;;;;;;5076978;28;20040;-64
2022/09/28 03:38:20;;;;;;;16.10;4.88;;;7.50;99.90;;;;;;5076918;28;20098;-64
2022/09/28 03:40:53;;;;;;;7.57;4.90;;;7.40;99.90;;;;;;5077057;28;20064;-64
2022/09/28 03:43:19;;;;;;;41.15;6.30;;;7.30;99.90;;;;;;5076804;28;20044;-64
2022/09/28 03:45:54;;;;;;;5.80;4.80;;;7.30;99.90;;;;;;5076747;28;20040;-64
2022/09/28 03:48:25;;;;;;;17.00;5.43;;;7.40;99.90;;;;;;5076747;28;20035;-63
2022/09/28 03:50:55;;;;;;;30.10;4.97;;;7.30;99.90;;;;;;5076564;28;20535;-64
2022/09/28 03:53:21;;;;;;;31.63;5.85;;;7.20;99.90;;;;;;5076733;28;20041;-65
2022/09/28 03:55:49;;;;;;;22.40;4.63;;;7.20;99.90;;;;;;5076329;28;20080;-63
2022/09/28 03:58:15;;;;;;;24.98;5.28;;;7.20;99.90;;;;;;5076407;28;20097;-64
2022/09/28 04:00:42;;;;;;;11.65;5.00;;;7.10;99.90;;;;;;5076427;28;20080;-64
2022/09/28 04:03:08;;;;;;;46.40;5.60;;;7.10;99.90;;;;;;5076393;28;20080;-64
2022/09/28 04:05:33;;;;;;;10.05;4.70;;;7.00;99.90;;;;;;5076261;28;20032;-64
2022/09/28 04:07:59;;;;;;;34.20;5.25;;;7.10;99.90;;;;;;5076449;28;20047;-64
2022/09/28 04:10:25;;;;;;;13.23;5.00;;;7.00;99.90;;;;;;5076158;28;20483;-64
2022/09/28 04:12:55;;;;;;;48.97;6.40;;;6.90;99.90;;;;;;5076350;28;20047;-63
2022/09/28 04:15:22;;;;;;;8.65;5.00;;;6.90;99.90;;;;;;5076347;28;20082;-64
2022/09/28 04:17:47;;;;;;;11.77;5.32;;;6.90;99.90;;;;;;5076225;28;20044;-63
2022/09/28 04:20:13;;;;;;;17.70;5.38;;;6.90;99.90;;;;;;5076244;28;20115;-64
2022/09/28 04:22:39;;;;;;;20.63;6.25;;;6.90;99.90;;;;;;5076142;28;20124;-64
2022/09/28 04:25:05;;;;;;;33.78;6.30;;;6.90;99.90;;;;;;5076097;28;20451;-64
2022/09/28 04:30:15;;;;;;;26.63;6.22;;;6.80;99.90;;;;;;5075870;28;20067;-62
2022/09/28 04:32:41;;;;;;;39.25;6.03;;;6.80;99.90;;;;;;5075891;28;20125;-63
2022/09/28 04:35:10;;;;;;;24.63;6.13;;;6.70;99.90;;;;;;5075944;28;20094;-64
2022/09/28 04:37:36;;;;;;;12.60;5.50;;;6.60;99.90;;;;;;5075957;28;20044;-64
2022/09/28 04:40:02;;;;;;;5.80;5.20;;;6.70;99.90;;;;;;5075626;28;20043;-64
2022/09/28 04:42:28;;;;;;;14.68;5.70;;;6.70;99.90;;;;;;5075539;28;20437;-64
2022/09/28 04:44:53;;;;;;;7.90;5.70;;;6.70;99.90;;;;;;5075735;28;20041;-64
2022/09/28 04:47:19;;;;;;;6.28;5.45;;;6.70;99.90;;;;;;5075896;28;20041;-64
2022/09/28 04:49:44;;;;;;;6.22;5.63;;;6.90;99.90;;;;;;5075467;28;20400;-64
2022/09/28 04:52:10;;;;;;;7.88;5.30;;;6.80;99.90;;;;;;5075636;28;20041;-64
2022/09/28 04:54:36;;;;;;;9.77;5.90;;;6.80;99.90;;;;;;5075321;28;20083;-64
2022/09/28 04:57:02;;;;;;;6.60;5.95;;;6.80;99.90;;;;;;5075611;28;20032;-64
2022/09/28 04:59:28;;;;;;;12.98;5.75;;;6.80;99.90;;;;;;5074218;28;20044;-64
2022/09/28 05:01:53;;;;;;;7.03;6.30;;;6.70;99.90;;;;;;5075735;28;20036;-64
2022/09/28 05:04:19;;;;;;;8.48;6.25;;;6.70;99.90;;;;;;5075303;28;20036;-65
2022/09/28 05:06:45;;;;;;;12.07;6.40;;;6.70;99.90;;;;;;5075346;28;20036;-64
2022/09/28 05:09:10;;;;;;;7.60;6.80;;;6.70;99.90;;;;;;5074106;28;20048;-64
2022/09/28 05:11:36;;;;;;;7.03;6.32;;;6.70;99.90;;;;;;5075275;28;20039;-64
2022/09/28 05:14:02;;;;;;;7.13;6.25;;;6.70;99.90;;;;;;5075091;28;20513;-65
2022/09/28 05:16:29;;;;;;;7.57;6.78;;;6.70;99.90;;;;;;5075171;28;20044;-65
2022/09/28 05:18:56;;;;;;;7.97;7.00;;;6.80;99.90;;;;;;5075017;28;20052;-64
2022/09/28 05:21:24;;;;;;;8.25;6.95;;;6.70;99.90;;;;;;5074830;28;20051;-65
2022/09/28 05:23:49;;;;;;;7.60;6.50;;;6.80;99.90;;;;;;5074769;28;20498;-64
2022/09/28 05:26:15;;;;;;;9.20;7.18;;;6.70;99.90;;;;;;5074890;28;20032;-63
2022/09/28 05:28:41;;;;;;;7.78;6.97;;;6.70;99.90;;;;;;5074850;28;20105;-63
2022/09/28 05:31:07;;;;;;;7.78;6.90;;;6.70;99.90;;;;;;5074157;28;20029;-63
2022/09/28 05:33:33;;;;;;;7.70;5.93;;;6.70;99.90;;;;;;5074806;28;20040;-64
2022/09/28 05:35:59;;;;;;;6.85;6.00;;;6.70;99.90;;;;;;5074501;28;20044;-64
2022/09/28 05:38:25;;;;;;;8.15;7.28;;;6.70;99.90;;;;;;5074585;28;20532;-64
2022/09/28 05:40:51;;;;;;;7.30;6.53;;;6.80;99.90;;;;;;5074572;28;20472;-64
2022/09/28 05:43:17;;;;;;;8.40;7.22;;;6.80;99.90;;;;;;5074536;28;20039;-63
2022/09/28 05:45:42;;;;;;;10.23;6.97;;;6.80;99.90;;;;;;5074167;28;20037;-64
2022/09/28 05:48:08;;;;;;;8.10;7.05;;;6.80;99.90;;;;;;5073271;28;20028;-64
2022/09/28 05:50:34;;;;;;;7.65;6.85;;;6.90;99.90;;;;;;5072592;28;20426;-63
2022/09/28 05:53:01;;;;;;;8.85;7.45;;;6.80;99.90;;;;;;5074082;28;20036;-64
2022/09/28 05:55:27;;;;;;;9.93;8.63;;;6.80;99.90;;;;;;5073827;28;20520;-64
2022/09/28 05:57:56;;;;;;;11.20;8.35;;;6.90;99.90;;;;;;5074250;28;20499;-64
2022/09/28 06:00:22;;;;;;;9.57;8.13;;;6.80;99.90;;;;;;5074147;28;20471;-64
2022/09/28 06:02:59;;;;;;;8.77;7.88;;;6.90;99.90;;;;;;5074051;28;20054;-64
2022/09/28 06:05:25;;;;;;;8.20;7.40;;;7.00;99.90;;;;;;5074558;28;20072;-64
2022/09/28 06:07:53;;;;;;;8.60;6.93;;;7.00;99.90;;;;;;5074134;28;20048;-64
2022/09/28 06:10:19;;;;;;;7.90;6.78;;;7.10;99.90;;;;;;5074028;28;20040;-64
2022/09/28 06:12:46;;;;;;;9.40;8.38;;;7.00;99.90;;;;;;5074534;28;20037;-63
2022/09/28 06:15:13;;;;;;;8.13;7.32;;;7.10;99.90;;;;;;5074087;28;20119;-63
2022/09/28 06:17:39;;;;;;;10.70;7.20;;;7.20;99.90;;;;;;5072595;28;20089;-64
2022/09/28 06:20:05;;;;;;;11.05;8.93;;;7.20;99.90;;;;;;5071358;28;20044;-63
2022/09/28 06:22:30;;;;;;;8.18;7.38;;;7.20;99.90;;;;;;5073533;28;20161;-63
2022/09/28 06:24:56;;;;;;;8.65;7.75;;;7.20;99.90;;;;;;5073963;28;20115;-64
2022/09/28 06:27:22;;;;;;;7.82;7.13;;;7.20;99.90;;;;;;5073982;28;20035;-64
2022/09/28 06:29:47;;;;;;;10.30;8.02;;;7.40;99.90;;;;;;5074177;28;20055;-64
2022/09/28 06:32:13;;;;;;;8.25;7.07;;;7.40;99.90;;;;;;5073904;28;20115;-64
2022/09/28 06:34:40;;;;;;;8.88;7.97;;;7.40;99.90;;;;;;5073763;28;20037;-63
2022/09/28 06:37:06;;;;;;;8.57;7.72;;;7.40;99.90;;;;;;5073751;28;20433;-64
2022/09/28 06:39:32;;;;;;;8.57;7.40;;;7.40;99.90;;;;;;5073761;28;20036;-63
2022/09/28 06:42:02;;;;;;;9.48;8.48;;;7.40;99.90;;;;;;5073774;28;20072;-64
2022/09/28 06:44:28;;;;;;;10.23;9.13;;;7.50;99.90;;;;;;5073618;28;20094;-64
2022/09/28 06:46:54;;;;;;;11.27;8.40;;;7.50;99.90;;;;;;5073174;28;20044;-64
2022/09/28 06:49:21;;;;;;;15.40;8.63;;;7.40;99.90;;;;;;5072833;28;20111;-64
2022/09/28 06:51:46;;;;;;;11.98;7.95;;;7.50;99.90;;;;;;5073050;28;20041;-64
2022/09/28 06:54:12;;;;;;;10.77;8.95;;;7.60;99.90;;;;;;5073385;28;20109;-64
2022/09/28 06:56:38;;;;;;;10.45;9.35;;;7.60;99.90;;;;;;5073599;28;20093;-64
2022/09/28 06:59:03;;;;;;;14.38;9.50;;;7.70;99.90;;;;;;5073439;28;20041;-64
2022/09/28 07:01:29;;;;;;;10.13;8.95;;;7.70;99.90;;;;;;5073948;28;20032;-64
2022/09/28 07:03:56;;;;;;;17.02;8.80;;;7.80;99.90;;;;;;5077628;28;20101;-64
2022/09/28 07:06:25;;;;;;;12.40;9.25;;;7.90;99.90;;;;;;5077582;28;20037;-63
2022/09/28 07:08:50;;;;;;;11.98;9.65;;;7.90;99.90;;;;;;5077653;28;20047;-64
2022/09/28 07:11:19;;;;;;;10.80;9.57;;;8.00;99.90;;;;;;5077456;28;20382;-65
2022/09/28 07:13:44;;;;;;;11.95;10.15;;;8.00;99.90;;;;;;5077716;28;20055;-63
2022/09/28 07:16:11;;;;;;;11.10;10.00;;;8.10;99.90;;;;;;5077181;28;20467;-64
2022/09/28 07:18:36;;;;;;;13.45;10.40;;;8.20;99.90;;;;;;5076441;28;20127;-64
2022/09/28 07:21:04;;;;;;;15.15;10.05;;;8.10;99.90;;;;;;5076338;28;20056;-64
2022/09/28 07:23:29;;;;;;;14.00;11.00;;;8.20;99.90;;;;;;5077022;28;20047;-65
2022/09/28 07:25:57;;;;;;;13.75;10.43;;;8.30;99.90;;;;;;5077245;28;20033;-64
2022/09/28 07:28:23;;;;;;;23.92;10.43;;;8.40;99.90;;;;;;5077092;28;20468;-64
2022/09/28 07:30:48;;;;;;;16.98;11.07;;;8.40;99.90;;;;;;5077224;28;20040;-64
2022/09/28 07:33:16;;;;;;;16.55;10.90;;;8.50;99.90;;;;;;5077074;28;20390;-64
2022/09/28 07:35:52;;;;;;;12.02;10.48;;;8.40;99.90;;;;;;5076777;28;20036;-64
2022/09/28 07:38:18;;;;;;;52.20;11.40;;;8.50;99.90;;;;;;5077055;28;20047;-65
2022/09/28 07:43:28;;;;;;;14.40;10.57;;;8.50;99.90;;;;;;5077060;28;20388;-64
2022/09/28 07:45:54;;;;;;;14.10;10.68;;;8.60;99.90;;;;;;5076745;28;20036;-64
2022/09/28 07:48:20;;;;;;;13.15;10.98;;;8.70;99.90;;;;;;5075692;28;20537;-65
2022/09/28 07:50:53;;;;;;;13.60;10.73;;;8.70;99.90;;;;;;5075997;28;20028;-64
2022/09/28 07:53:21;;;;;;;12.40;10.75;;;8.80;99.90;;;;;;5076676;28;20045;-64
2022/09/28 07:55:50;;;;;;;12.88;10.60;;;9.60;99.90;;;;;;5076434;28;20052;-64
2022/09/28 07:58:16;;;;;;;17.33;10.52;;;9.00;99.90;;;;;;5076553;28;20091;-63
2022/09/28 08:00:46;;;;;;;11.73;10.23;;;9.10;99.90;;;;;;5076592;28;20365;-64
2022/09/28 08:03:11;;;;;;;12.50;9.95;;;9.20;99.90;;;;;;5076502;28;20383;-64
2022/09/28 08:05:37;;;;;;;11.65;9.85;;;9.20;99.90;;;;;;5076506;28;20036;-65
2022/09/28 08:08:03;;;;;;;11.20;9.93;;;9.30;99.90;;;;;;5076390;28;20043;-64
2022/09/28 08:10:29;;;;;;;10.15;9.15;;;9.90;99.90;;;;;;5076616;28;20033;-64
2022/09/28 08:12:57;;;;;;;11.48;8.88;;;10.30;99.90;;;;;;5076171;28;20040;-64
2022/09/28 08:15:22;;;;;;;9.82;8.85;;;10.50;99.90;;;;;;5075648;28;20532;-63
2022/09/28 08:17:49;;;;;;;8.70;7.80;;;11.10;99.90;;;;;;5075701;28;20036;-63
2022/09/28 08:23:04;;;;;;;8.98;7.13;;;12.40;99.90;;;;;;5076039;28;20482;-63
2022/09/28 08:25:30;;;;;;;6.78;6.00;;;12.90;99.90;;;;;;5075958;28;20036;-63
2022/09/28 08:27:55;;;;;;;6.00;5.30;;;13.50;99.90;;;;;;5076158;28;20039;-64
2022/09/28 08:30:21;;;;;;;7.63;6.82;;;13.90;99.90;;;;;;5076347;28;20398;-64
2022/09/28 08:32:50;;;;;;;8.98;5.25;;;14.30;99.90;;;;;;5075917;28;20469;-64
2022/09/28 08:35:16;;;;;;;5.60;4.80;;;14.60;99.90;;;;;;5075967;28;20071;-64
2022/09/28 08:37:41;;;;;;;5.13;3.88;;;14.70;99.90;;;;;;5075918;28;20036;-63
2022/09/28 08:40:18;;;;;;;4.03;3.60;;;14.80;99.90;;;;;;5075781;28;20090;-63
2022/09/28 08:42:44;;;;;;;5.90;3.78;;;15.00;99.90;;;;;;5075559;28;20531;-63
2022/09/28 08:45:19;;;;;;;6.43;4.55;;;15.20;99.90;;;;;;5075801;28;20123;-64
2022/09/28 08:50:58;;;;;;;4.88;4.45;;;15.60;99.90;;;;;;5074659;28;20127;-63
2022/09/28 08:53:42;;;;;;;7.13;4.63;;;16.10;99.90;;;;;;5075565;28;20040;-63
2022/09/28 08:56:28;;;;;;;8.82;4.05;;;16.40;99.90;;;;;;5075519;28;20049;-64
2022/09/28 08:59:04;;;;;;;4.40;4.00;;;16.40;99.90;;;;;;5075489;28;20036;-64
2022/09/28 09:01:39;;;;;;;4.43;3.88;;;16.60;99.90;;;;;;5075554;28;20036;-63
2022/09/28 09:04:05;;;;;;;5.55;3.75;;;16.70;99.90;;;;;;5075265;28;20033;-63
2022/09/28 09:06:54;;;;;;;5.38;4.00;;;17.00;99.90;;;;;;5075311;28;20044;-63
2022/09/28 09:09:56;;;;;;;7.30;3.55;;;17.10;99.90;;;;;;5075265;28;20483;-65
2022/09/28 09:12:35;;;;;;;4.85;3.22;;;17.20;99.90;;;;;;5073871;28;20099;-63
2022/09/28 09:15:10;;;;;;;4.88;3.25;;;17.40;99.90;;;;;;5075225;28;20112;-63
2022/09/28 09:17:55;;;;;;;3.92;2.60;;;17.50;99.90;;;;;;5074998;28;20114;-63
2022/09/28 09:20:29;;;;;;;3.63;2.95;;;17.50;99.90;;;;;;5075055;28;20391;-63
2022/09/28 09:23:00;;;;;;;10.13;3.10;;;17.20;99.90;;;;;;5075006;28;20127;-65
2022/09/28 09:25:31;;;;;;;2.75;2.47;;;17.10;99.90;;;;;;5074060;28;20033;-64
2022/09/28 09:28:31;;;;;;;3.10;2.30;;;16.80;99.90;;;;;;5074911;28;20046;-63
2022/09/28 09:31:09;;;;;;;3.60;2.53;;;16.50;99.90;;;;;;5074999;28;20039;-63
2022/09/28 09:33:44;;;;;;;4.05;2.55;;;16.10;99.90;;;;;;5074724;28;20047;-64
2022/09/28 09:36:12;;;;;;;4.45;1.90;;;16.00;99.90;;;;;;5074829;28;20063;-63
2022/09/28 09:39:27;;;;;;;2.65;1.80;;;15.80;99.90;;;;;;5074392;28;20050;-63
2022/09/28 09:42:08;;;;;;;1.40;1.00;;;15.50;99.90;;;;;;5032405;28;20199;-64
2022/09/28 09:44:47;;;;;;;2.40;1.27;;;15.20;99.90;;;;;;5032447;28;20080;-63
2022/09/28 09:47:30;;;;;;;3.28;1.20;;;15.10;99.90;;;;;;5032467;28;20053;-64
2022/09/28 09:50:29;;;;;;;4.95;1.70;;;15.00;99.90;;;;;;5032451;28;20188;-64
2022/09/28 09:53:21;;;;;;;2.17;1.25;;;14.90;99.90;;;;;;5032302;28;20057;-63
2022/09/28 09:55:53;;;;;;;3.15;1.13;;;14.80;99.90;;;;;;5032138;28;20057;-63
2022/09/28 09:58:30;;;;;;;2.85;0.98;;;14.90;99.90;;;;;;5032274;28;20058;-64
2022/09/28 10:01:05;;;;;;;1.55;0.90;;;14.90;99.90;;;;;;5032299;28;20042;-64
2022/09/28 10:03:35;;;;;;;2.08;1.00;;;15.00;99.90;;;;;;5031977;28;20048;-64
2022/09/28 10:06:32;;;;;;;2.75;1.00;;;14.90;99.90;;;;;;5032263;28;20184;-64
2022/09/28 10:09:20;;;;;;;5.75;1.13;;;15.10;99.90;;;;;;5031452;28;20041;-64
2022/09/28 10:11:49;;;;;;;2.53;0.73;;;15.00;99.90;;;;;;5031899;28;20435;-64
2022/09/28 10:14:22;;;;;;;3.67;0.90;;;14.90;99.90;;;;;;5031949;28;20049;-64
2022/09/28 10:16:50;;;;;;;3.30;0.73;;;14.90;99.90;;;;;;5033075;28;20509;-64
2022/09/28 10:19:19;;;;;;;0.95;0.60;;;14.90;99.90;;;;;;5074089;28;20036;-64
2022/09/28 10:21:49;;;;;;;2.90;0.60;;;14.90;99.90;;;;;;5073962;28;20055;-64
2022/09/28 10:24:34;;;;;;;2.08;0.63;;;14.90;99.90;;;;;;5073888;28;20482;-64
2022/09/28 10:27:07;;;;;;;0.95;0.65;;;14.80;99.90;;;;;;5073915;28;20090;-64
2022/09/28 10:29:48;;;;;;;3.05;0.70;;;14.80;99.90;;;;;;5073953;28;20386;-64
2022/09/28 10:32:20;;;;;;;3.03;0.60;;;14.70;99.90;;;;;;5073861;28;20032;-64
2022/09/28 10:34:46;;;;;;;2.67;0.55;;;14.60;99.90;;;;;;5073834;28;20032;-64
2022/09/28 10:37:12;;;;;;;5.78;0.77;;;14.50;99.90;;;;;;5073563;28;20131;-64
2022/09/28 10:39:52;;;;;;;1.77;0.70;;;14.40;99.90;;;;;;5072438;28;20048;-64
2022/09/28 10:42:32;;;;;;;1.35;0.70;;;14.40;99.90;;;;;;5073642;28;20033;-64
2022/09/28 10:45:12;;;;;;;;;;;14.30;99.90;;;;;;5074246;28;20041;-65
2022/09/28 10:47:43;;;;;;;3.45;0.60;;;14.20;99.90;;;;;;5073498;28;19916;-64
2022/09/28 10:50:21;;;;;;;2.40;1.10;;;14.40;99.90;;;;;;5073612;28;20052;-64
2022/09/28 10:52:47;;;;;;;1.65;0.40;;;14.40;99.90;;;;;;5073700;28;20070;-64
2022/09/28 10:55:27;;;;;;;1.48;0.57;;;14.40;99.90;;;;;;5073329;28;20060;-65
2022/09/28 10:57:53;;;;;;;2.03;0.47;;;14.50;99.90;;;;;;5073675;28;20040;-64
2022/09/28 11:00:42;;;;;;;0.75;0.38;;;14.60;99.90;;;;;;5073451;28;20063;-64
2022/09/28 11:03:24;;;;;;;1.25;0.25;;;14.80;99.90;;;;;;5073555;28;20047;-64
2022/09/28 11:06:06;;;;;;;1.40;0.75;;;14.90;99.90;;;;;;5073347;28;20043;-65
2022/09/28 11:08:40;;;;;;;3.17;0.60;;;15.10;99.90;;;;;;5073570;28;20036;-65
2022/09/28 11:11:09;;;;;;;2.63;1.35;;;15.10;99.90;;;;;;5073380;28;20482;-64
2022/09/28 11:13:47;;;;;;;7.93;1.90;;;15.30;99.90;;;;;;5073355;28;20040;-64
2022/09/28 11:16:25;;;;;;;2.88;0.40;;;15.50;99.90;;;;;;5073502;28;20041;-64
2022/09/28 11:18:50;;;;;;;0.90;0.38;;;15.80;99.90;;;;;;5073405;28;20043;-64
2022/09/28 11:21:21;;;;;;;0.40;0.30;;;16.10;99.90;;;;;;5073425;28;20123;-64
2022/09/28 11:24:00;;;;;;;1.13;0.35;;;16.40;99.90;;;;;;5073251;28;20132;-64
2022/09/28 11:26:33;;;;;;;1.23;0.63;;;16.80;99.90;;;;;;5073438;28;20040;-64
2022/09/28 11:28:59;;;;;;;3.20;0.28;;;17.10;99.90;;;;;;5073157;28;20071;-64
2022/09/28 11:31:27;;;;;;;0.75;0.30;;;17.30;99.90;;;;;;5073350;28;20432;-65
2022/09/28 11:34:05;;;;;;;1.48;0.40;;;17.20;99.90;;;;;;5073344;28;20048;-65
2022/09/28 11:36:50;;;;;;;2.00;0.35;;;17.00;99.90;;;;;;5073498;28;20040;-64
2022/09/28 11:39:34;;;;;;;0.95;0.52;;;16.60;99.90;;;;;;5073171;28;20066;-64
2022/09/28 11:42:35;;;;;;;2.05;0.55;;;16.40;99.90;;;;;;5073164;28;20044;-65
2022/09/28 11:45:35;;;;;;;21.60;3.85;;;16.10;99.90;;;;;;5031177;28;20061;-65
2022/09/28 11:48:04;;;;;;;1.88;0.75;;;15.90;99.90;;;;;;5031644;28;20041;-64
2022/09/28 11:51:00;;;;;;;1.38;0.73;;;15.50;99.90;;;;;;5034583;28;20049;-65
2022/09/28 11:53:53;;;;;;;1.50;0.55;;;15.20;99.90;;;;;;5034786;28;20044;-64
2022/09/28 11:56:30;;;;;;;1.02;0.60;;;15.00;99.90;;;;;;5034415;28;20106;-65
2022/09/28 11:59:37;;;;;;;2.03;0.70;;;14.90;99.90;;;;;;5034537;28;20120;-65
2022/09/28 12:02:30;;;;;;;1.65;0.50;;;14.90;99.90;;;;;;5034191;28;20522;-65
2022/09/28 12:05:15;;;;;;;1.15;0.38;;;14.80;99.90;;;;;;5034344;28;20045;-65
2022/09/28 12:08:18;;;;;;;1.08;0.32;;;15.00;99.90;;;;;;5034477;28;20037;-65
2022/09/28 12:10:55;;;;;;;0.20;0.10;;;15.30;99.90;;;;;;5034446;28;20061;-64
2022/09/28 12:13:36;;;;;;;1.80;0.30;;;15.60;99.90;;;;;;5034303;28;20042;-64
2022/09/28 12:16:22;;;;;;;1.17;0.30;;;15.90;99.90;;;;;;5034339;28;20140;-63
2022/09/28 12:19:28;;;;;;;0.73;0.30;;;16.10;99.90;;;;;;5034168;28;20045;-64
2022/09/28 12:21:59;;;;;;;1.27;0.17;;;16.00;99.90;;;;;;4970166;28;20184;-63
2022/09/28 12:24:41;;;;;;;1.13;0.40;;;15.90;99.90;;;;;;5013887;28;20096;-65
2022/09/28 12:27:28;;;;;;;0.40;0.25;;;15.90;99.90;;;;;;5014335;28;20133;-64
2022/09/28 12:30:18;;;;;;;0.80;0.30;;;15.80;99.90;;;;;;5014069;28;20092;-64
2022/09/28 12:32:59;;;;;;;1.23;0.45;;;15.60;99.90;;;;;;5014022;28;20104;-64
2022/09/28 12:35:33;;;;;;;12.65;3.67;;;15.40;99.90;;;;;;5014204;28;20077;-64
2022/09/28 12:38:07;;;;;;;8.07;1.98;;;15.10;99.90;;;;;;5014648;28;20050;-64
2022/09/28 12:40:58;;;;;;;3.28;0.55;;;14.90;99.90;;;;;;5014132;28;20064;-64
2022/09/28 12:43:48;;;;;;;0.30;0.10;;;14.60;99.90;;;;;;4997202;28;20062;-64
2022/09/28 12:46:58;;;;;;;0.52;0.32;;;14.40;99.90;;;;;;5014396;28;20054;-64
2022/09/28 12:50:03;;;;;;;0.25;0.20;;;14.10;99.90;;;;;;4974586;28;20097;-64
2022/09/28 12:52:48;;;;;;;0.32;0.30;;;13.90;99.90;;;;;;5009362;28;20507;-64
2022/09/28 12:55:18;;;;;;;0.60;0.30;;;13.70;99.90;;;;;;5053150;28;20060;-64
2022/09/28 12:57:46;;;;;;;0.50;0.30;;;13.60;99.90;;;;;;5053405;28;20041;-64
2022/09/28 13:00:16;;;;;;;0.85;0.40;;;13.50;99.90;;;;;;5053253;28;20564;-64
2022/09/28 13:02:56;;;;;;;1.60;0.60;;;13.50;99.90;;;;;;5036883;28;20076;-64
2022/09/28 13:05:58;;;;;;;2.33;0.57;;;13.40;99.90;;;;;;5053756;28;20048;-65
2022/09/28 13:08:30;;;;;;;0.22;0.20;;;13.40;99.90;;;;;;5053267;28;20380;-64
2022/09/28 13:11:15;;;;;;;0.20;0.20;;;13.40;99.90;;;;;;5053218;28;20074;-65
2022/09/28 13:14:09;;;;;;;0.45;0.22;;;13.40;99.90;;;;;;5036635;28;20156;-64
2022/09/28 13:16:57;;;;;;;0.75;0.17;;;13.40;99.90;;;;;;4993672;28;20049;-64
2022/09/28 13:19:49;;;;;;;2.15;0.20;;;13.40;99.90;;;;;;4993519;28;20155;-64
2022/09/28 13:22:31;;;;;;;0.13;0.10;;;13.40;99.90;;;;;;4993700;28;20054;-64
2022/09/28 13:25:02;;;;;;;0.43;0.10;;;13.30;99.90;;;;;;4977608;28;20133;-64
2022/09/28 13:27:41;;;;;;;0.55;0.20;;;13.30;99.90;;;;;;4974020;28;20050;-64
2022/09/28 13:30:12;;;;;;;0.80;0.10;;;13.50;99.90;;;;;;4974014;28;20445;-65
2022/09/28 13:32:38;;;;;;;0.75;0.40;;;13.60;99.90;;;;;;4974128;28;20050;-65
2022/09/28 13:35:05;;;;;;;1.73;0.20;;;13.80;99.90;;;;;;4974020;28;20057;-65
2022/09/28 13:37:30;;;;;;;0.30;0.10;;;14.00;99.90;;;;;;4973865;28;20049;-64